Glen Jean, West Virginia
Current Conditions -  °F | °C
As of 11:21 AM on Wednesday 26 Nov 2014 (Local Time) from KBKW Reporting Station
Light Snow Light Snow  
Wind Chill: 34°   Ceiling: 200
Heat Index: 34°   Visibility: 0.25mi
Dew Point: 32°   Wind: 0mph
Humidity: 92%   Direction: NA
Pressure: 29.97"   Gusts: NA
Location:  37.93°N, 81.15°W
Report Text: KBKW 261621Z AUTO 00000KT 1/4SM -SN FG BKN002 OVC011 01/00 A2997 RMK AO2 PRESFR P0001 T00110000
Loading
Personal Weather Stations






























Interactive Weather Map New forecast layout! Learn more

10-Day Weather Forecast

Advertisements
Track Severe Weather on mobile